Time;durP1;ratioP1;P1;durP2;ratioP2;P2;SDS_P1;SDS_P2;PMS_P1;PMS_P2;Temp;Humidity;BMP_temperature;BMP_pressure;BME280_temperature;BME280_humidity;BME280_pressure;Samples;Min_cycle;Max_cycle;Signal;HPM_P1;HPM_P2
2023/03/25 00:02:20;;;;;;;917.03;141.10;;;8.20;99.90;;;;;;5041786;28;20209;-50
2023/03/25 00:04:51;;;;;;;1023.03;130.17;;;8.30;99.90;;;;;;5051957;28;20240;-50
2023/03/25 00:07:21;;;;;;;387.27;51.27;;;8.30;99.90;;;;;;5052306;28;20228;-50
2023/03/25 00:09:49;;;;;;;1999.90;360.47;;;8.30;99.90;;;;;;5045791;28;20248;-50
2023/03/25 00:12:18;;;;;;;479.70;50.93;;;8.30;99.90;;;;;;5047140;28;20221;-49
2023/03/25 00:14:53;;;;;;;1116.67;112.37;;;8.30;99.90;;;;;;5038091;28;20230;-50
2023/03/25 00:17:22;;;;;;;1428.37;177.37;;;8.40;99.90;;;;;;5051779;28;20345;-51
2023/03/25 00:19:50;;;;;;;1340.77;188.30;;;8.40;99.90;;;;;;5052157;28;20210;-52
2023/03/25 00:22:20;;;;;;;1234.60;136.60;;;8.40;99.90;;;;;;5051887;28;20218;-52
2023/03/25 00:24:49;;;;;;;1277.17;158.70;;;8.40;99.90;;;;;;5051941;28;20279;-52
2023/03/25 00:27:18;;;;;;;564.70;85.83;;;8.40;99.90;;;;;;5052084;28;20258;-52
2023/03/25 00:29:46;;;;;;;1771.60;232.33;;;8.40;99.90;;;;;;5051596;28;20209;-52
2023/03/25 00:32:16;;;;;;;1468.87;164.03;;;8.50;99.90;;;;;;5032586;28;20236;-51
2023/03/25 00:34:46;;;;;;;1999.90;280.57;;;8.40;99.90;;;;;;5039951;28;21046;-52
2023/03/25 00:37:17;;;;;;;1999.90;288.87;;;8.50;99.90;;;;;;5038516;28;20244;-51
2023/03/25 00:39:46;;;;;;;860.50;109.63;;;8.50;99.90;;;;;;5039389;28;20214;-52
2023/03/25 00:42:16;;;;;;;1446.47;193.50;;;8.50;99.90;;;;;;5039603;28;20206;-52
2023/03/25 00:44:44;;;;;;;620.70;101.50;;;8.50;99.90;;;;;;5044381;28;20240;-50
2023/03/25 00:47:17;;;;;;;1999.90;236.73;;;8.60;99.90;;;;;;5051267;28;20202;-50
2023/03/25 00:49:45;;;;;;;1999.90;249.47;;;8.50;99.90;;;;;;5051485;28;20312;-50
2023/03/25 00:52:14;;;;;;;1999.90;377.80;;;8.50;99.90;;;;;;5051156;28;20216;-50
2023/03/25 00:54:43;;;;;;;454.27;68.80;;;8.50;99.90;;;;;;5051454;28;20340;-50
2023/03/25 00:57:13;;;;;;;157.50;34.03;;;8.50;99.90;;;;;;5051117;28;20211;-50
2023/03/25 00:59:41;;;;;;;240.07;41.13;;;8.60;99.90;;;;;;5046811;28;20206;-49
2023/03/25 01:02:09;;;;;;;1146.73;183.33;;;8.60;99.90;;;;;;5046165;28;20214;-52
2023/03/25 01:04:38;;;;;;;949.20;103.27;;;8.60;99.90;;;;;;5047783;28;20860;-52
2023/03/25 01:07:09;;;;;;;1999.90;309.70;;;8.60;99.90;;;;;;5050944;28;20206;-52
2023/03/25 01:09:40;;;;;;;1999.90;368.20;;;8.50;99.90;;;;;;5051089;28;20248;-50
2023/03/25 01:12:08;;;;;;;1999.90;271.80;;;8.50;99.90;;;;;;5051123;28;20213;-50
2023/03/25 01:14:37;;;;;;;739.67;98.30;;;8.60;99.90;;;;;;5036664;28;20314;-50
2023/03/25 01:17:05;;;;;;;1632.87;241.37;;;8.50;99.90;;;;;;5050914;28;20223;-49
2023/03/25 01:19:34;;;;;;;1078.20;108.00;;;8.50;99.90;;;;;;5050897;28;20889;-50
2023/03/25 01:22:02;;;;;;;1999.90;260.30;;;8.50;99.90;;;;;;5040691;28;20671;-51
2023/03/25 01:24:31;;;;;;;1999.90;270.30;;;8.50;99.90;;;;;;5050899;28;20292;-50
2023/03/25 01:26:59;;;;;;;1999.90;372.80;;;8.50;99.90;;;;;;5023258;28;20202;-50
2023/03/25 01:29:27;;;;;;;1814.20;211.60;;;8.50;99.90;;;;;;5050867;28;20617;-50
2023/03/25 01:31:57;;;;;;;1748.30;219.33;;;8.50;99.90;;;;;;5050454;28;20227;-50
2023/03/25 01:34:25;;;;;;;784.50;123.03;;;8.50;99.90;;;;;;5050126;28;20215;-50
2023/03/25 01:36:54;;;;;;;515.30;106.90;;;8.60;99.90;;;;;;5048858;28;20202;-49
2023/03/25 01:39:23;;;;;;;316.67;55.97;;;8.60;99.90;;;;;;5040590;28;20285;-51
2023/03/25 01:41:53;;;;;;;1334.97;184.17;;;8.70;99.90;;;;;;5044634;28;20628;-49
2023/03/25 01:44:59;;;;;;;1834.77;226.53;;;8.60;99.90;;;;;;5050483;28;20564;-50
2023/03/25 01:47:29;;;;;;;1059.70;169.77;;;8.60;99.90;;;;;;5036698;28;20288;-50
2023/03/25 01:49:57;;;;;;;1999.90;369.83;;;8.50;99.90;;;;;;5044110;28;20226;-50
2023/03/25 01:52:28;;;;;;;703.67;104.80;;;8.50;99.90;;;;;;5049606;28;20648;-50
2023/03/25 01:54:59;;;;;;;585.00;112.40;;;8.50;99.90;;;;;;5050014;28;20264;-50
2023/03/25 01:57:30;;;;;;;609.27;114.70;;;8.50;99.90;;;;;;5050105;28;20202;-49
2023/03/25 01:59:58;;;;;;;470.90;83.17;;;8.50;99.90;;;;;;5050263;28;20208;-50
2023/03/25 02:02:33;;;;;;;1169.47;168.90;;;8.50;99.90;;;;;;5049763;28;20207;-52
2023/03/25 02:05:09;;;;;;;1364.60;173.13;;;8.50;99.90;;;;;;5050110;28;20261;-49
2023/03/25 02:07:41;;;;;;;538.37;98.00;;;8.50;99.90;;;;;;5040249;28;20297;-50
2023/03/25 02:10:11;;;;;;;709.27;128.73;;;8.50;99.90;;;;;;5048987;28;20267;-50
2023/03/25 02:12:39;;;;;;;727.03;130.37;;;8.50;99.90;;;;;;5045358;28;20205;-50
2023/03/25 02:15:09;;;;;;;178.33;55.80;;;8.50;99.90;;;;;;5035894;28;20221;-50
2023/03/25 02:17:49;;;;;;;1192.33;234.53;;;8.50;99.90;;;;;;5049756;28;20262;-50
2023/03/25 02:21:02;;;;;;;342.40;99.13;;;8.50;99.90;;;;;;5031537;28;20260;-51
2023/03/25 02:24:15;;;;;;;708.77;94.27;;;8.60;99.90;;;;;;5049814;28;20211;-50
2023/03/25 02:27:32;;;;;;;388.43;78.60;;;8.60;99.90;;;;;;5032538;28;20245;-50
2023/03/25 02:30:37;;;;;;;483.33;71.03;;;8.50;99.90;;;;;;4987294;28;20219;-50
2023/03/25 02:33:50;;;;;;;1996.90;240.13;;;8.50;99.90;;;;;;5049334;28;20248;-50
2023/03/25 02:37:15;;;;;;;484.07;93.07;;;8.40;99.90;;;;;;5024482;28;20225;-49
2023/03/25 02:39:51;;;;;;;1317.63;185.07;;;8.40;99.90;;;;;;5035371;28;20201;-49
2023/03/25 02:42:26;;;;;;;1999.90;317.03;;;8.30;99.90;;;;;;5049474;28;20212;-50
2023/03/25 02:44:59;;;;;;;1999.90;306.07;;;8.30;99.90;;;;;;5049439;28;20655;-49
2023/03/25 02:47:33;;;;;;;1918.53;240.00;;;8.30;99.90;;;;;;5048969;28;20209;-50
2023/03/25 02:50:06;;;;;;;1999.90;369.23;;;8.30;99.90;;;;;;5043539;28;20229;-50
2023/03/25 02:52:38;;;;;;;1238.83;189.17;;;8.20;99.90;;;;;;5043096;28;20210;-50
2023/03/25 02:55:11;;;;;;;1942.67;284.13;;;8.30;99.90;;;;;;5042853;28;20290;-49
2023/03/25 02:57:42;;;;;;;574.43;96.50;;;8.20;99.90;;;;;;5022216;28;20208;-52
2023/03/25 03:00:14;;;;;;;1076.27;193.00;;;8.20;99.90;;;;;;5049202;28;20574;-52
2023/03/25 03:02:49;;;;;;;1004.20;155.80;;;8.30;99.90;;;;;;5049258;28;20217;-52
2023/03/25 03:05:26;;;;;;;868.90;174.40;;;8.30;99.90;;;;;;5041247;28;20971;-52
2023/03/25 03:08:07;;;;;;;1327.30;142.20;;;8.30;99.90;;;;;;5022820;28;20236;-50
2023/03/25 03:10:46;;;;;;;1626.67;194.77;;;8.20;99.90;;;;;;5046887;28;20312;-50
2023/03/25 03:13:24;;;;;;;1551.63;197.13;;;8.20;99.90;;;;;;5043804;28;20292;-49
2023/03/25 03:15:59;;;;;;;1162.43;209.80;;;8.20;99.90;;;;;;5041160;28;20225;-50
2023/03/25 03:18:43;;;;;;;311.97;62.33;;;8.20;99.90;;;;;;5041475;28;20312;-50
2023/03/25 03:21:16;;;;;;;1954.13;298.17;;;8.20;99.90;;;;;;5048494;28;20605;-52
2023/03/25 03:23:55;;;;;;;1563.33;206.33;;;8.10;99.90;;;;;;5048646;28;20745;-52
2023/03/25 03:26:33;;;;;;;1999.90;475.50;;;8.10;99.90;;;;;;5048640;28;20233;-52
2023/03/25 03:29:09;;;;;;;1285.17;224.77;;;8.10;99.90;;;;;;5048561;28;20308;-52
2023/03/25 03:31:41;;;;;;;1577.33;177.80;;;8.10;99.90;;;;;;5048695;28;20297;-51
2023/03/25 03:34:35;;;;;;;1999.90;440.27;;;8.10;99.90;;;;;;5048833;28;20210;-51
2023/03/25 03:37:04;;;;;;;1207.17;192.50;;;8.10;99.90;;;;;;5048364;28;20300;-52
2023/03/25 03:39:35;;;;;;;1999.90;315.57;;;8.10;99.90;;;;;;5048568;28;20237;-52
2023/03/25 03:42:10;;;;;;;885.47;164.73;;;8.10;99.90;;;;;;5048633;28;20205;-51
2023/03/25 03:44:41;;;;;;;755.17;132.80;;;8.10;99.90;;;;;;5048552;28;20229;-52
2023/03/25 03:47:11;;;;;;;993.77;142.10;;;8.10;99.90;;;;;;5048682;28;20201;-52
2023/03/25 03:49:42;;;;;;;1207.50;180.73;;;8.20;99.90;;;;;;5048309;28;20217;-52
2023/03/25 03:52:15;;;;;;;103.60;34.73;;;8.20;99.90;;;;;;5048266;28;20202;-52
2023/03/25 03:54:48;;;;;;;875.90;123.67;;;8.20;99.90;;;;;;5046248;28;20232;-50
2023/03/25 03:57:21;;;;;;;1067.40;105.03;;;8.20;99.90;;;;;;5032043;28;20289;-50
2023/03/25 03:59:57;;;;;;;530.80;97.30;;;8.20;99.90;;;;;;5020442;28;20313;-50
2023/03/25 04:02:31;;;;;;;1001.63;138.93;;;8.10;99.90;;;;;;5033109;28;20722;-51
2023/03/25 04:05:00;;;;;;;645.10;104.10;;;8.00;99.90;;;;;;5047675;28;20316;-49
2023/03/25 04:07:37;;;;;;;1741.30;187.97;;;8.10;99.90;;;;;;5035982;28;20685;-50
2023/03/25 04:10:13;;;;;;;1429.33;142.33;;;8.10;99.90;;;;;;5048587;28;20244;-49
2023/03/25 04:12:45;;;;;;;1481.77;188.17;;;8.10;99.90;;;;;;5043846;28;20662;-50
2023/03/25 04:15:14;;;;;;;461.80;79.53;;;8.00;99.90;;;;;;5034257;28;20234;-49
2023/03/25 04:17:44;;;;;;;1548.80;247.17;;;8.00;99.90;;;;;;5050265;28;20207;-50
2023/03/25 04:20:15;;;;;;;687.60;148.13;;;8.10;99.90;;;;;;5050569;28;20591;-49
2023/03/25 04:22:44;;;;;;;1614.47;243.20;;;8.00;99.90;;;;;;5050870;28;20285;-50
2023/03/25 04:25:13;;;;;;;1482.47;201.10;;;8.00;99.90;;;;;;5038820;28;20234;-49
2023/03/25 04:27:44;;;;;;;1928.83;237.87;;;7.90;99.90;;;;;;5051440;28;20273;-49
2023/03/25 04:30:12;;;;;;;1999.90;293.33;;;7.90;99.90;;;;;;5049584;28;20767;-50
2023/03/25 04:32:40;;;;;;;1974.40;247.50;;;7.90;99.90;;;;;;5032244;28;20204;-50
2023/03/25 04:35:09;;;;;;;1060.70;146.13;;;7.90;99.90;;;;;;5036941;28;20302;-50
2023/03/25 04:37:37;;;;;;;1999.90;519.00;;;7.90;99.90;;;;;;5047814;28;20203;-50
2023/03/25 04:40:07;;;;;;;1999.90;252.00;;;7.90;99.90;;;;;;5042752;28;20210;-50
2023/03/25 04:42:36;;;;;;;1657.40;259.73;;;7.90;99.90;;;;;;5034125;28;20292;-52
2023/03/25 04:45:06;;;;;;;1999.90;492.23;;;7.80;99.90;;;;;;5034471;28;20234;-52
2023/03/25 04:47:36;;;;;;;1999.90;384.33;;;7.80;99.90;;;;;;5038701;28;20244;-52
2023/03/25 04:50:04;;;;;;;1999.90;331.23;;;7.70;99.90;;;;;;5037509;28;20607;-52
2023/03/25 04:52:33;;;;;;;1356.27;212.20;;;7.80;99.90;;;;;;5049747;28;20798;-53
2023/03/25 04:55:01;;;;;;;721.80;136.30;;;7.80;99.90;;;;;;5050581;28;20312;-53
2023/03/25 04:57:30;;;;;;;983.43;130.77;;;7.80;99.90;;;;;;5038642;28;20221;-52
2023/03/25 04:59:58;;;;;;;240.20;47.00;;;7.90;99.90;;;;;;5049646;28;20198;-52
2023/03/25 05:02:27;;;;;;;431.00;58.03;;;8.00;99.90;;;;;;5039936;28;20297;-52
2023/03/25 05:05:01;;;;;;;448.13;84.27;;;8.10;99.90;;;;;;5036381;28;20680;-53
2023/03/25 05:07:29;;;;;;;1139.07;142.57;;;8.10;99.90;;;;;;5044527;28;20301;-51
2023/03/25 05:09:57;;;;;;;506.30;70.50;;;8.10;99.90;;;;;;5041564;28;20222;-51
2023/03/25 05:12:25;;;;;;;681.33;97.40;;;8.10;99.90;;;;;;5042288;28;20746;-52
2023/03/25 05:14:53;;;;;;;587.97;64.97;;;8.10;99.90;;;;;;5046037;28;20233;-52
2023/03/25 05:17:21;;;;;;;157.77;32.43;;;8.10;99.90;;;;;;5040748;28;20310;-53
2023/03/25 05:19:51;;;;;;;207.93;41.17;;;8.10;99.90;;;;;;5031731;28;20213;-53
2023/03/25 05:22:20;;;;;;;37.97;17.97;;;8.10;99.90;;;;;;5040338;28;20222;-52
2023/03/25 05:24:47;;;;;;;58.43;26.60;;;8.10;99.90;;;;;;5037870;28;20230;-52
2023/03/25 05:27:18;;;;;;;133.10;31.93;;;8.10;99.90;;;;;;5030335;28;20729;-52
2023/03/25 05:29:47;;;;;;;1771.63;254.27;;;8.20;99.90;;;;;;5030529;28;20242;-51
2023/03/25 05:32:16;;;;;;;193.00;48.80;;;8.20;99.90;;;;;;5030944;28;20198;-52
2023/03/25 05:34:45;;;;;;;447.87;73.10;;;8.20;99.90;;;;;;5030943;28;20249;-53
2023/03/25 05:37:14;;;;;;;607.13;102.23;;;8.20;99.90;;;;;;5034939;28;20300;-52
2023/03/25 05:39:42;;;;;;;802.27;110.93;;;8.20;99.90;;;;;;5037195;28;20297;-52
2023/03/25 05:42:12;;;;;;;1999.90;332.73;;;8.10;99.90;;;;;;5041744;28;20209;-52
2023/03/25 05:44:45;;;;;;;1041.67;118.00;;;8.00;99.90;;;;;;5041115;28;20242;-52
2023/03/25 05:47:13;;;;;;;1999.90;268.37;;;8.00;99.90;;;;;;5044655;28;20233;-52
2023/03/25 05:49:41;;;;;;;1835.23;216.17;;;7.90;99.90;;;;;;5032812;28;20228;-52
2023/03/25 05:52:10;;;;;;;392.63;60.37;;;8.00;99.90;;;;;;5047996;28;20316;-52
2023/03/25 05:54:40;;;;;;;1423.83;175.57;;;8.00;99.90;;;;;;5043190;28;20320;-52
2023/03/25 05:57:08;;;;;;;1613.67;272.37;;;8.10;99.90;;;;;;5048063;28;20232;-52
2023/03/25 05:59:37;;;;;;;300.87;48.73;;;8.00;99.90;;;;;;5043716;28;20255;-52
2023/03/25 06:02:07;;;;;;;319.20;50.90;;;8.10;99.90;;;;;;5030543;28;20578;-52
2023/03/25 06:04:40;;;;;;;169.13;33.70;;;8.10;99.90;;;;;;5033507;28;20211;-52
2023/03/25 06:07:12;;;;;;;896.73;144.60;;;8.10;99.90;;;;;;5041937;28;20198;-53
2023/03/25 06:09:44;;;;;;;784.03;117.43;;;8.10;99.90;;;;;;5037303;28;20211;-52
2023/03/25 06:12:13;;;;;;;1063.23;170.60;;;8.10;99.90;;;;;;5032105;28;20753;-51
2023/03/25 06:14:44;;;;;;;1903.47;289.30;;;8.20;99.90;;;;;;5030040;28;20718;-52
2023/03/25 06:17:12;;;;;;;1999.90;307.60;;;8.10;99.90;;;;;;5034192;28;20202;-52
2023/03/25 06:19:40;;;;;;;1677.93;221.63;;;8.10;99.90;;;;;;5036672;28;20214;-52
2023/03/25 06:22:10;;;;;;;1942.33;254.27;;;8.10;99.90;;;;;;5035238;28;20289;-53
2023/03/25 06:24:39;;;;;;;1143.23;149.13;;;8.10;99.90;;;;;;5037461;28;20227;-51
2023/03/25 06:27:13;;;;;;;1999.90;326.47;;;8.10;99.90;;;;;;5038518;28;20242;-52
2023/03/25 06:29:41;;;;;;;1942.93;284.23;;;8.10;99.90;;;;;;5042499;28;20268;-50
2023/03/25 06:32:11;;;;;;;316.97;54.03;;;8.10;99.90;;;;;;5043917;28;20309;-50
2023/03/25 06:34:41;;;;;;;1999.90;394.60;;;8.10;99.90;;;;;;5042403;28;20906;-50
2023/03/25 06:37:10;;;;;;;1999.90;322.30;;;8.20;99.90;;;;;;5042232;28;20265;-50
2023/03/25 06:39:38;;;;;;;1999.90;391.77;;;8.30;99.90;;;;;;5039275;28;20246;-52
2023/03/25 06:42:08;;;;;;;1463.93;217.13;;;8.30;99.90;;;;;;5038731;28;20317;-51
2023/03/25 06:44:35;;;;;;;1999.90;442.03;;;8.30;99.90;;;;;;5036530;28;20394;-52
2023/03/25 06:47:05;;;;;;;1981.20;289.67;;;8.20;99.90;;;;;;5035273;28;20210;-51
2023/03/25 06:49:33;;;;;;;1999.90;258.77;;;8.20;99.90;;;;;;5038363;28;20594;-51
2023/03/25 06:52:01;;;;;;;1999.90;405.50;;;8.20;99.90;;;;;;5032984;28;20229;-52
2023/03/25 06:54:29;;;;;;;399.53;82.97;;;8.20;99.90;;;;;;5028933;28;20209;-53
2023/03/25 06:56:57;;;;;;;1775.00;237.17;;;8.30;99.90;;;;;;5029122;28;20216;-52
2023/03/25 06:59:26;;;;;;;1999.90;335.37;;;8.30;99.90;;;;;;5028207;28;20208;-51
2023/03/25 07:01:54;;;;;;;1365.10;234.50;;;8.30;99.90;;;;;;5028934;28;20300;-52
2023/03/25 07:04:22;;;;;;;1999.90;625.90;;;8.30;99.90;;;;;;5028500;28;20225;-52
2023/03/25 07:06:50;;;;;;;1854.43;319.77;;;8.30;99.90;;;;;;5033690;28;20957;-51
2023/03/25 07:09:19;;;;;;;1999.90;412.43;;;8.40;99.90;;;;;;5029074;28;20238;-49
2023/03/25 07:11:47;;;;;;;1999.90;561.30;;;8.30;99.90;;;;;;5028467;28;20222;-50
2023/03/25 07:14:15;;;;;;;1999.90;285.33;;;8.30;99.90;;;;;;5028666;28;20325;-50
2023/03/25 07:16:44;;;;;;;1267.30;186.17;;;8.30;99.90;;;;;;5028832;28;20877;-49
2023/03/25 07:19:12;;;;;;;1999.90;371.70;;;8.40;99.90;;;;;;5029079;28;20215;-50
2023/03/25 07:21:40;;;;;;;1949.63;307.70;;;8.40;99.90;;;;;;5041137;28;20343;-50
2023/03/25 07:24:08;;;;;;;909.67;197.93;;;8.40;99.90;;;;;;5028630;28;20298;-49
2023/03/25 07:26:36;;;;;;;893.30;167.43;;;8.40;99.90;;;;;;5028575;28;20311;-52
2023/03/25 07:29:05;;;;;;;1783.03;291.60;;;8.40;99.90;;;;;;5030479;28;20202;-52
2023/03/25 07:31:33;;;;;;;147.17;32.13;;;8.50;99.90;;;;;;5028361;28;20703;-52
2023/03/25 07:34:03;;;;;;;94.30;33.40;;;8.70;99.90;;;;;;5028752;28;20209;-51
2023/03/25 07:36:31;;;;;;;1673.00;231.33;;;8.70;99.90;;;;;;5028562;28;20233;-52
2023/03/25 07:38:59;;;;;;;1397.63;232.13;;;8.80;99.90;;;;;;5028291;28;20221;-53
2023/03/25 07:41:27;;;;;;;1999.90;731.10;;;8.90;99.90;;;;;;5028252;28;20202;-52
2023/03/25 07:43:55;;;;;;;1867.23;358.27;;;9.00;99.90;;;;;;5042620;28;20308;-52
2023/03/25 07:46:23;;;;;;;298.03;70.87;;;9.00;99.90;;;;;;5028767;28;20254;-53
2023/03/25 07:48:51;;;;;;;1999.90;604.30;;;9.00;99.90;;;;;;5028520;28;20206;-52
2023/03/25 07:51:20;;;;;;;1141.73;180.27;;;9.00;99.90;;;;;;5028536;28;20312;-52
2023/03/25 07:53:48;;;;;;;1600.20;325.93;;;9.00;99.90;;;;;;5028553;28;20241;-52
2023/03/25 07:56:16;;;;;;;1966.63;297.23;;;9.00;99.90;;;;;;5028548;28;20318;-53
2023/03/25 07:58:45;;;;;;;947.83;140.47;;;9.10;99.90;;;;;;5029928;28;20222;-51
2023/03/25 08:01:13;;;;;;;1124.30;195.50;;;9.10;99.90;;;;;;5034340;28;20237;-52
2023/03/25 08:03:41;;;;;;;1999.90;445.60;;;9.20;99.90;;;;;;5029998;28;20237;-52
2023/03/25 08:06:09;;;;;;;1999.90;912.07;;;9.40;99.90;;;;;;5030956;28;20234;-52
2023/03/25 08:08:39;;;;;;;1999.90;719.13;;;9.20;99.90;;;;;;5047749;28;20224;-52
2023/03/25 08:11:07;;;;;;;1702.53;318.47;;;9.10;99.90;;;;;;5035003;28;20210;-52
2023/03/25 08:13:35;;;;;;;1691.03;277.73;;;9.10;99.90;;;;;;5031895;28;20743;-52
2023/03/25 08:16:04;;;;;;;1526.80;242.90;;;9.10;99.90;;;;;;5031935;28;20232;-51
2023/03/25 08:18:32;;;;;;;1999.90;338.67;;;9.20;99.90;;;;;;5037640;28;20210;-52
2023/03/25 08:21:00;;;;;;;1473.60;261.73;;;9.20;99.90;;;;;;5032277;28;20248;-53
2023/03/25 08:23:28;;;;;;;783.27;144.83;;;9.30;99.90;;;;;;5024937;28;20289;-51
2023/03/25 08:25:57;;;;;;;1999.90;507.83;;;9.40;99.90;;;;;;5037123;28;20742;-52
2023/03/25 08:28:25;;;;;;;1999.90;548.83;;;9.30;99.90;;;;;;5036409;28;20201;-52
2023/03/25 08:30:54;;;;;;;1999.90;363.70;;;9.40;99.90;;;;;;5034349;28;20214;-51
2023/03/25 08:33:25;;;;;;;930.77;162.63;;;9.50;99.90;;;;;;5032714;28;20214;-54
2023/03/25 08:35:57;;;;;;;1561.77;293.57;;;9.50;99.90;;;;;;5031547;28;20231;-52
2023/03/25 08:38:30;;;;;;;1999.90;570.57;;;9.60;99.90;;;;;;5030865;28;20681;-53
2023/03/25 08:41:03;;;;;;;1648.43;296.53;;;9.70;99.90;;;;;;5029922;28;20205;-52
2023/03/25 08:43:32;;;;;;;907.97;163.07;;;9.70;99.90;;;;;;5028734;28;20210;-53
2023/03/25 08:46:00;;;;;;;1999.90;385.20;;;9.80;99.90;;;;;;5027466;28;20237;-53
2023/03/25 08:48:28;;;;;;;1904.80;325.20;;;9.80;99.90;;;;;;5021129;28;20742;-53
2023/03/25 08:50:56;;;;;;;1669.80;242.97;;;9.80;99.90;;;;;;5032949;28;21015;-53
2023/03/25 08:53:24;;;;;;;1976.63;396.87;;;9.80;99.90;;;;;;5026409;28;20264;-53
2023/03/25 08:55:53;;;;;;;1819.63;304.23;;;9.80;99.90;;;;;;5031020;28;20314;-53
2023/03/25 08:58:23;;;;;;;1748.30;307.87;;;9.80;99.90;;;;;;5028457;28;20253;-53
2023/03/25 09:00:54;;;;;;;1325.47;242.37;;;9.70;99.90;;;;;;5027098;28;21026;-53
2023/03/25 09:03:23;;;;;;;1999.90;576.20;;;9.70;99.90;;;;;;5030687;28;20203;-53
2023/03/25 09:05:51;;;;;;;1999.90;331.73;;;9.80;99.90;;;;;;5028024;28;20237;-52
2023/03/25 09:08:20;;;;;;;1999.90;472.77;;;9.70;99.90;;;;;;5047239;28;20240;-52
2023/03/25 09:10:48;;;;;;;1999.90;459.23;;;9.70;99.90;;;;;;5041036;28;20746;-52
2023/03/25 09:13:16;;;;;;;1999.90;314.63;;;9.80;99.90;;;;;;5030795;28;20228;-52
2023/03/25 09:15:46;;;;;;;1999.90;457.27;;;9.70;99.90;;;;;;5047843;28;20316;-53
2023/03/25 09:18:15;;;;;;;1999.90;398.40;;;9.80;99.90;;;;;;5038779;28;20259;-52
2023/03/25 09:20:46;;;;;;;1999.90;374.60;;;10.20;99.90;;;;;;5031043;28;20237;-53
2023/03/25 09:23:15;;;;;;;1999.90;447.43;;;10.50;99.90;;;;;;5018137;28;20206;-53
2023/03/25 09:25:43;;;;;;;1999.90;578.80;;;10.90;99.90;;;;;;5028487;28;20309;-52
2023/03/25 09:28:11;;;;;;;1999.90;609.67;;;10.80;99.90;;;;;;5030020;28;20264;-53
2023/03/25 09:30:39;;;;;;;1480.27;289.33;;;10.60;99.90;;;;;;5030005;28;20214;-53
2023/03/25 09:33:08;;;;;;;1999.90;613.87;;;10.40;99.90;;;;;;5029747;28;20309;-53
2023/03/25 09:35:37;;;;;;;1084.10;188.07;;;10.20;99.90;;;;;;5029708;28;20304;-51
2023/03/25 09:38:05;;;;;;;819.50;169.83;;;10.00;99.90;;;;;;5029687;28;20214;-50
2023/03/25 09:40:34;;;;;;;1999.90;567.93;;;9.70;99.90;;;;;;5030014;28;20206;-50
2023/03/25 09:43:20;;;;;;;1999.90;918.50;;;9.60;99.90;;;;;;5029442;28;20211;-51
2023/03/25 09:45:49;;;;;;;1999.90;471.00;;;9.30;99.90;;;;;;5029702;28;20225;-50
2023/03/25 09:48:28;;;;;;;1999.90;364.23;;;9.50;99.90;;;;;;5029284;28;20596;-51
2023/03/25 09:50:59;;;;;;;1592.87;196.97;;;9.50;99.90;;;;;;5029562;28;20667;-50
2023/03/25 09:53:33;;;;;;;1999.90;730.47;;;9.60;99.90;;;;;;5029420;28;20293;-51
2023/03/25 09:56:03;;;;;;;573.40;122.53;;;9.80;99.90;;;;;;5029295;28;20674;-50
2023/03/25 09:58:40;;;;;;;1149.33;179.67;;;9.80;99.90;;;;;;5029061;28;20321;-51
2023/03/25 10:01:21;;;;;;;1403.40;238.13;;;9.90;99.90;;;;;;5028684;28;20210;-51
2023/03/25 10:04:24;;;;;;;460.93;66.63;;;10.10;99.90;;;;;;5029546;28;20210;-51
2023/03/25 10:06:58;;;;;;;699.43;114.17;;;10.20;99.90;;;;;;5027759;28;20217;-51
2023/03/25 10:09:40;;;;;;;1999.90;518.20;;;10.20;99.90;;;;;;5032971;28;20210;-51
2023/03/25 10:12:18;;;;;;;1999.90;479.87;;;10.10;99.90;;;;;;5028171;28;20214;-51
2023/03/25 10:14:59;;;;;;;1999.90;510.73;;;10.10;99.90;;;;;;5032480;28;20221;-50
2023/03/25 10:17:37;;;;;;;1353.63;228.97;;;10.00;99.90;;;;;;5025345;28;20309;-51
2023/03/25 10:20:16;;;;;;;1797.73;317.37;;;10.00;99.90;;;;;;5032676;28;20683;-51
2023/03/25 10:22:58;;;;;;;1602.80;314.17;;;10.10;99.90;;;;;;5030703;28;20234;-51
2023/03/25 10:25:30;;;;;;;1405.17;237.23;;;10.40;99.90;;;;;;5031626;28;20225;-51
2023/03/25 10:28:00;;;;;;;1894.60;314.30;;;10.60;99.90;;;;;;5029202;28;20304;-51
2023/03/25 10:30:33;;;;;;;1999.90;396.97;;;10.70;99.90;;;;;;5032030;28;20228;-51
2023/03/25 10:33:06;;;;;;;1999.90;550.50;;;10.90;99.90;;;;;;5028127;28;20248;-51
2023/03/25 10:35:40;;;;;;;1999.90;457.83;;;10.90;99.90;;;;;;5031688;28;20221;-51
2023/03/25 10:38:17;;;;;;;1999.90;573.20;;;10.70;99.90;;;;;;5028174;28;20697;-51
2023/03/25 10:40:48;;;;;;;1890.53;306.53;;;10.60;99.90;;;;;;5031839;28;20263;-51
2023/03/25 10:43:25;;;;;;;1999.90;480.83;;;11.00;99.90;;;;;;5027721;28;20206;-51
2023/03/25 10:45:56;;;;;;;1999.90;450.73;;;11.40;99.90;;;;;;5036739;28;20855;-51
2023/03/25 10:48:27;;;;;;;1999.90;502.97;;;11.60;99.90;;;;;;5048878;28;20206;-51
2023/03/25 10:51:03;;;;;;;1999.90;503.17;;;11.70;99.90;;;;;;5048995;28;20209;-51
2023/03/25 10:53:32;;;;;;;1999.90;440.00;;;11.70;99.90;;;;;;5043246;28;20767;-51
2023/03/25 10:56:03;;;;;;;1999.90;401.77;;;12.00;99.90;;;;;;5031446;28;20317;-51
2023/03/25 10:58:33;;;;;;;1999.90;519.73;;;12.20;99.90;;;;;;5028858;28;20297;-51
2023/03/25 11:01:10;;;;;;;1999.90;695.30;;;12.40;99.90;;;;;;5028951;28;20241;-52
2023/03/25 11:03:40;;;;;;;1999.90;817.30;;;12.60;99.90;;;;;;5028999;28;20301;-51
2023/03/25 11:06:21;;;;;;;1999.90;771.73;;;12.40;99.90;;;;;;5028897;28;20645;-51
2023/03/25 11:09:14;;;;;;;1999.90;534.27;;;12.10;99.90;;;;;;5021570;28;20214;-51
2023/03/25 11:11:43;;;;;;;1999.90;901.20;;;12.00;99.90;;;;;;5004503;28;20302;-51
2023/03/25 11:14:11;;;;;;;1999.90;764.57;;;11.80;99.90;;;;;;5037068;28;20236;-51
2023/03/25 11:16:46;;;;;;;1999.90;682.53;;;11.50;99.90;;;;;;5028510;28;20240;-51
2023/03/25 11:19:19;;;;;;;1999.90;464.63;;;11.50;99.90;;;;;;5037272;28;20211;-50
2023/03/25 11:21:54;;;;;;;1999.90;555.30;;;11.60;99.90;;;;;;5041570;28;20237;-51
2023/03/25 11:24:27;;;;;;;1999.90;569.93;;;11.90;99.90;;;;;;5028738;28;20617;-50
2023/03/25 11:26:56;;;;;;;1927.00;314.37;;;11.80;99.90;;;;;;5028610;28;20285;-50
2023/03/25 11:29:27;;;;;;;1999.90;690.77;;;11.90;99.90;;;;;;5028561;28;20300;-51
2023/03/25 11:32:06;;;;;;;1999.90;645.97;;;12.00;99.90;;;;;;5028478;28;20206;-51
2023/03/25 11:34:40;;;;;;;1999.90;749.23;;;12.10;99.90;;;;;;5028367;28;20305;-50
2023/03/25 11:37:18;;;;;;;1999.90;794.47;;;12.10;99.90;;;;;;5041163;28;20232;-50
2023/03/25 11:39:53;;;;;;;1999.90;923.27;;;12.10;99.90;;;;;;5033161;28;20297;-51
2023/03/25 11:42:31;;;;;;;1999.90;884.90;;;12.10;99.90;;;;;;5029876;28;20234;-51
2023/03/25 11:45:02;;;;;;;1999.90;641.40;;;12.00;99.90;;;;;;5030980;28;20656;-51
2023/03/25 11:47:32;;;;;;;1999.90;717.10;;;12.00;99.90;;;;;;5029344;28;20272;-51
2023/03/25 11:50:01;;;;;;;1999.90;925.27;;;12.20;99.90;;;;;;5032811;28;20221;-50
2023/03/25 11:52:39;;;;;;;1999.90;701.57;;;12.40;99.90;;;;;;5036528;28;20679;-51
2023/03/25 11:55:17;;;;;;;1999.90;995.23;;;12.50;99.90;;;;;;5037040;28;20312;-50
2023/03/25 11:57:48;;;;;;;1999.90;932.90;;;12.20;99.90;;;;;;5030431;28;20674;-50
2023/03/25 12:00:31;;;;;;;1999.90;854.70;;;12.30;99.90;;;;;;5042672;28;20288;-51
2023/03/25 12:03:00;;;;;;;1999.90;999.90;;;12.50;99.90;;;;;;5033519;28;20237;-50
2023/03/25 12:05:29;;;;;;;1999.90;780.63;;;12.80;99.90;;;;;;5032096;28;20237;-51
2023/03/25 12:08:10;;;;;;;1999.90;656.33;;;13.00;99.90;;;;;;5038929;28;20306;-51
2023/03/25 12:10:53;;;;;;;1999.90;999.90;;;13.00;99.90;;;;;;5042696;28;20324;-51
2023/03/25 12:13:34;;;;;;;1999.90;711.07;;;13.10;99.90;;;;;;5046665;28;20217;-51
2023/03/25 12:16:16;;;;;;;1999.90;667.20;;;12.90;99.90;;;;;;5040982;28;20308;-51
2023/03/25 12:18:56;;;;;;;1999.90;979.43;;;13.10;99.90;;;;;;5036376;28;20256;-51
2023/03/25 12:21:38;;;;;;;1999.90;618.77;;;13.30;99.90;;;;;;5032093;28;20206;-50
2023/03/25 12:24:24;;;;;;;1999.90;999.90;;;13.10;99.90;;;;;;5032027;28;20205;-50
2023/03/25 12:27:10;;;;;;;1999.90;875.87;;;13.10;99.90;;;;;;5031759;28;20260;-51
2023/03/25 12:29:47;;;;;;;1999.90;999.90;;;12.90;99.90;;;;;;5032325;28;20233;-51
2023/03/25 12:32:25;;;;;;;1999.90;810.67;;;12.40;99.90;;;;;;5034867;28;20224;-51
2023/03/25 12:35:07;;;;;;;1999.90;908.13;;;12.20;99.90;;;;;;5031508;28;20237;-51
2023/03/25 12:37:48;;;;;;;1999.90;919.97;;;12.30;99.90;;;;;;5036404;28;20306;-53